Aviation Digital Data Service (ADDS)

Output produced by METARs form (1410 UTC 23 November 2014)
found at http://www.aviationweather.gov/adds/metars/
 
KPIA 231120Z 2312/2412 16010KT P6SM BKN050 WS020/22040KT 
     FM231600 15013G20KT 5SM -SHRA BR OVC007 
     FM240000 18010KT 2SM -SHRA BR OVC004 
     FM240800 27012G20KT 4SM BR VCSH OVC007